Station Historical Data
Daily Summary for October 22, 2017 Units:  English    Metric   Both
« Previous Day
Next Day »
Daily Weekly Monthly Yearly Custom
  High: Low: Average:
Temperature: 79.8 °F 47.1 °F 62.6 °F
Dew Point: 55.6 °F 42.5 °F 49.6 °F
Humidity: 86% 37% 65%
Wind Speed: 8.0mph 0.0mph 0.8mph
Wind Gust: 10.0mph - -
Wind- - SSW
Pressure: 30.29 in 30.11 in -
Precipitation: 0.00 in    
Historical Graphs
 
 
Tabular Data for October 22, 2017
Time Temperature Dew Point Pressure Wind Wind Speed Wind Gust Humidity Rainfall Rate (Hourly)
00:04 52.3 °F 46.0 °F 30.23 in Calm     79% 0.00 in
00:09 51.9 °F 45.6 °F 30.23 in Calm     79% 0.00 in
00:14 51.7 °F 45.7 °F 30.23 in Calm     80% 0.00 in
00:19 51.6 °F 45.6 °F 30.23 in Calm     80% 0.00 in
00:24 51.5 °F 45.9 °F 30.23 in Calm     81% 0.00 in
00:29 51.5 °F 45.9 °F 30.23 in Calm     81% 0.00 in
00:34 51.5 °F 46.2 °F 30.23 in Calm     82% 0.00 in
00:39 51.5 °F 46.2 °F 30.23 in Calm     82% 0.00 in
00:44 51.8 °F 46.2 °F 30.23 in Calm     81% 0.00 in
00:49 51.9 °F 46.3 °F 30.23 in Calm     81% 0.00 in
00:54 51.9 °F 46.3 °F 30.24 in Calm     81% 0.00 in
00:59 51.9 °F 46.3 °F 30.23 in Calm     81% 0.00 in
01:04 51.7 °F 46.1 °F 30.23 in Calm     81% 0.00 in
01:09 51.8 °F 46.2 °F 30.23 in Calm     81% 0.00 in
01:14 51.7 °F 46.1 °F 30.24 in Calm     81% 0.00 in
01:19 51.9 °F 46.3 °F 30.24 in Calm     81% 0.00 in
01:24 51.8 °F 46.2 °F 30.23 in Calm     81% 0.00 in
01:29 51.5 °F 45.9 °F 30.23 in Calm     81% 0.00 in
01:34 51.2 °F 45.6 °F 30.23 in Calm     81% 0.00 in
01:39 51.2 °F 45.9 °F 30.23 in Calm     82% 0.00 in
01:44 51.3 °F 45.7 °F 30.23 in Calm     81% 0.00 in
01:49 51.2 °F 45.6 °F 30.23 in Calm     81% 0.00 in
01:54 50.8 °F 45.2 °F 30.23 in Calm     81% 0.00 in
01:59 50.5 °F 45.2 °F 30.23 in Calm     82% 0.00 in
02:04 50.5 °F 45.2 °F 30.23 in Calm     82% 0.00 in
02:09 50.4 °F 45.1 °F 30.23 in Calm     82% 0.00 in
02:14 50.4 °F 45.1 °F 30.23 in Calm     82% 0.00 in
02:19 50.5 °F 44.9 °F 30.24 in Calm     81% 0.00 in
02:24 50.2 °F 44.6 °F 30.23 in Calm     81% 0.00 in
02:29 49.9 °F 44.3 °F 30.24 in Calm     81% 0.00 in
02:34 49.8 °F 44.5 °F 30.24 in Calm     82% 0.00 in
02:39 49.6 °F 44.3 °F 30.24 in Calm     82% 0.00 in
02:44 49.5 °F 44.2 °F 30.24 in Calm     82% 0.00 in
02:49 49.4 °F 44.5 °F 30.24 in Calm     83% 0.00 in
02:54 49.4 °F 44.5 °F 30.25 in Calm     83% 0.00 in
02:59 49.2 °F 44.3 °F 30.25 in Calm     83% 0.00 in
03:04 49.0 °F 44.4 °F 30.24 in Calm     84% 0.00 in
03:09 48.9 °F 44.3 °F 30.24 in Calm     84% 0.00 in
03:14 48.9 °F 44.3 °F 30.24 in Calm     84% 0.00 in
03:19 48.8 °F 44.2 °F 30.24 in Calm     84% 0.00 in
03:24 48.7 °F 44.1 °F 30.24 in Calm     84% 0.00 in
03:29 48.5 °F 43.9 °F 30.25 in Calm     84% 0.00 in
03:34 48.7 °F 43.8 °F 30.25 in Calm     83% 0.00 in
03:39 48.7 °F 43.8 °F 30.25 in Calm     83% 0.00 in
03:44 48.8 °F 43.5 °F 30.25 in Calm     82% 0.00 in
03:49 49.0 °F 43.7 °F 30.25 in Calm     82% 0.00 in
03:54 49.1 °F 43.8 °F 30.25 in Calm     82% 0.00 in
03:59 49.0 °F 43.7 °F 30.25 in Calm     82% 0.00 in
04:04 48.9 °F 43.3 °F 30.25 in Calm     81% 0.00 in
04:09 48.7 °F 43.5 °F 30.25 in Calm     82% 0.00 in
04:14 48.5 °F 43.3 °F 30.25 in Calm     82% 0.00 in
04:19 48.4 °F 43.2 °F 30.25 in Calm     82% 0.00 in
04:24 48.2 °F 43.0 °F 30.25 in Calm     82% 0.00 in
04:29 48.1 °F 43.2 °F 30.26 in Calm     83% 0.00 in
04:34 48.0 °F 43.1 °F 30.26 in Calm     83% 0.00 in
04:39 47.9 °F 43.0 °F 30.26 in Calm     83% 0.00 in
04:44 47.8 °F 42.9 °F 30.26 in Calm     83% 0.00 in
04:49 47.8 °F 43.2 °F 30.26 in Calm     84% 0.00 in
04:54 47.8 °F 43.2 °F 30.27 in Calm     84% 0.00 in
04:59 47.8 °F 43.2 °F 30.27 in Calm     84% 0.00 in
05:04 48.2 °F 43.3 °F 30.27 in Calm     83% 0.00 in
05:09 48.2 °F 43.3 °F 30.27 in Calm     83% 0.00 in
05:14 48.0 °F 43.1 °F 30.27 in Calm     83% 0.00 in
05:19 48.1 °F 43.2 °F 30.27 in Calm     83% 0.00 in
05:24 48.5 °F 43.6 °F 30.27 in Calm     83% 0.00 in
05:29 48.5 °F 43.3 °F 30.27 in Calm     82% 0.00 in
05:34 48.5 °F 43.3 °F 30.28 in Calm     82% 0.00 in
05:39 48.3 °F 43.1 °F 30.27 in Calm     82% 0.00 in
05:44 48.8 °F 43.9 °F 30.28 in Calm     83% 0.00 in
05:49 49.3 °F 44.0 °F 30.28 in Calm     82% 0.00 in
05:54 49.1 °F 43.5 °F 30.28 in Calm     81% 0.00 in
05:59 48.6 °F 43.0 °F 30.28 in Calm     81% 0.00 in
06:04 48.3 °F 43.1 °F 30.28 in Calm     82% 0.00 in
06:09 47.8 °F 42.9 °F 30.28 in Calm     83% 0.00 in
06:14 47.6 °F 43.0 °F 30.28 in Calm     84% 0.00 in
06:19 47.5 °F 42.6 °F 30.29 in Calm     83% 0.00 in
06:24 47.3 °F 42.7 °F 30.28 in Calm     84% 0.00 in
06:29 47.1 °F 42.5 °F 30.28 in Calm     84% 0.00 in
06:34 47.1 °F 42.8 °F 30.28 in Calm     85% 0.00 in
06:39 47.2 °F 42.9 °F 30.28 in Calm     85% 0.00 in
06:44 47.2 °F 42.9 °F 30.28 in Calm     85% 0.00 in
06:49 47.2 °F 42.9 °F 30.28 in Calm     85% 0.00 in
06:54 47.2 °F 42.9 °F 30.28 in Calm     85% 0.00 in
06:59 47.2 °F 42.9 °F 30.28 in Calm     85% 0.00 in
07:04 47.1 °F 42.8 °F 30.28 in Calm     85% 0.00 in
07:09 47.8 °F 43.8 °F 30.28 in Calm     86% 0.00 in
07:14 47.6 °F 43.0 °F 30.28 in Calm     84% 0.00 in
07:19 47.4 °F 43.1 °F 30.28 in Calm     85% 0.00 in
07:24 47.7 °F 43.4 °F 30.28 in Calm     85% 0.00 in
07:29 48.0 °F 43.7 °F 30.28 in Calm     85% 0.00 in
07:34 48.0 °F 43.7 °F 30.28 in Calm     85% 0.00 in
07:39 48.1 °F 43.8 °F 30.28 in Calm     85% 0.00 in
07:44 48.0 °F 43.4 °F 30.27 in Calm     84% 0.00 in
07:49 47.8 °F 43.2 °F 30.27 in Calm     84% 0.00 in
07:54 47.6 °F 43.0 °F 30.27 in Calm     84% 0.00 in
07:59 47.8 °F 43.2 °F 30.27 in Calm     84% 0.00 in
08:04 48.0 °F 43.7 °F 30.27 in Calm     85% 0.00 in
08:09 48.2 °F 43.6 °F 30.27 in Calm     84% 0.00 in
08:14 48.2 °F 43.6 °F 30.27 in Calm     84% 0.00 in
08:19 48.5 °F 43.9 °F 30.27 in Calm     84% 0.00 in
08:24 49.5 °F 44.9 °F 30.27 in Calm     84% 0.00 in
08:29 50.5 °F 45.2 °F 30.27 in Calm     82% 0.00 in
08:34 51.0 °F 45.4 °F 30.27 in Calm     81% 0.00 in
08:39 51.9 °F 45.9 °F 30.27 in Calm     80% 0.00 in
08:49 53.2 °F 46.5 °F 30.28 in Calm   3.0 mph 78% 0.00 in
08:54 54.0 °F 47.0 °F 30.27 in SE 1.0 mph 3.0 mph 77% 0.00 in
08:59 55.2 °F 47.4 °F 30.28 in SE 1.0 mph 3.0 mph 75% 0.00 in
09:04 56.1 °F 47.9 °F 30.28 in Calm   3.0 mph 74% 0.00 in
09:09 57.0 °F 48.1 °F 30.28 in SSE 2.0 mph 3.0 mph 72% 0.00 in
09:14 57.7 °F 48.4 °F 30.27 in SSE 2.0 mph 3.0 mph 71% 0.00 in
09:19 58.3 °F 48.6 °F 30.27 in SSE 1.0 mph 3.0 mph 70% 0.00 in
09:24 58.9 °F 48.7 °F 30.27 in Calm   4.0 mph 69% 0.00 in
09:29 59.8 °F 49.6 °F 30.27 in SSE 1.0 mph 3.0 mph 69% 0.00 in
09:34 60.4 °F 49.8 °F 30.27 in SE 2.0 mph 4.0 mph 68% 0.00 in
09:39 61.1 °F 50.1 °F 30.26 in Calm   3.0 mph 67% 0.00 in
09:44 61.8 °F 50.3 °F 30.27 in SSE 1.0 mph 3.0 mph 66% 0.00 in
09:49 62.4 °F 50.9 °F 30.27 in SSE 1.0 mph 4.0 mph 66% 0.00 in
09:54 63.1 °F 51.1 °F 30.26 in SSE 2.0 mph 5.0 mph 65% 0.00 in
09:59 63.7 °F 51.7 °F 30.26 in SSE 2.0 mph 5.0 mph 65% 0.00 in
10:04 64.5 °F 51.6 °F 30.26 in SSE 1.0 mph 1.0 mph 63% 0.00 in
10:09 65.0 °F 51.7 °F 30.26 in SW 3.0 mph 5.0 mph 62% 0.00 in
10:14 65.6 °F 52.7 °F 30.26 in SSW 1.0 mph 3.0 mph 63% 0.00 in
10:19 66.1 °F 52.3 °F 30.26 in SSW 1.0 mph 3.0 mph 61% 0.00 in
10:24 66.6 °F 52.7 °F 30.26 in South 1.0 mph 5.0 mph 61% 0.00 in
10:29 67.2 °F 52.4 °F 30.26 in South 2.0 mph 6.0 mph 59% 0.00 in
10:34 67.5 °F 52.7 °F 30.26 in SE 2.0 mph 4.0 mph 59% 0.00 in
10:39 68.0 °F 53.6 °F 30.26 in SSW 2.0 mph 6.0 mph 60% 0.00 in
10:44 68.4 °F 53.5 °F 30.26 in SSW 3.0 mph 5.0 mph 59% 0.00 in
10:49 68.6 °F 53.2 °F 30.25 in SSW 2.0 mph 5.0 mph 58% 0.00 in
10:54 68.9 °F 53.5 °F 30.25 in SSW 1.0 mph 5.0 mph 58% 0.00 in
10:59 69.0 °F 53.6 °F 30.25 in SSW 1.0 mph 3.0 mph 58% 0.00 in
11:04 69.1 °F 54.2 °F 30.25 in SSW 2.0 mph 5.0 mph 59% 0.00 in
11:09 69.5 °F 53.1 °F 30.25 in SSW 2.0 mph 4.0 mph 56% 0.00 in
11:14 70.0 °F 53.6 °F 30.25 in SW 1.0 mph 5.0 mph 56% 0.00 in
11:19 70.6 °F 54.1 °F 30.25 in Calm   4.0 mph 56% 0.00 in
11:24 70.5 °F 53.6 °F 30.25 in SW 2.0 mph 5.0 mph 55% 0.00 in
11:29 70.7 °F 53.2 °F 30.25 in SW 3.0 mph 7.0 mph 54% 0.00 in
11:34 71.5 °F 53.5 °F 30.25 in SSW 3.0 mph 7.0 mph 53% 0.00 in
11:39 71.9 °F 54.3 °F 30.25 in SSW 2.0 mph 7.0 mph 54% 0.00 in
11:44 71.9 °F 53.8 °F 30.25 in SSW 2.0 mph 6.0 mph 53% 0.00 in
11:49 72.0 °F 53.9 °F 30.25 in Calm   6.0 mph 53% 0.00 in
11:54 71.9 °F 53.3 °F 30.25 in SW 4.0 mph 5.0 mph 52% 0.00 in
11:59 72.1 °F 53.5 °F 30.25 in SW 2.0 mph 6.0 mph 52% 0.00 in
12:04 72.8 °F 54.7 °F 30.25 in SW 2.0 mph 6.0 mph 53% 0.00 in
12:09 73.5 °F 55.3 °F 30.25 in SSW 1.0 mph 5.0 mph 53% 0.00 in
12:14 73.7 °F 54.4 °F 30.25 in SW 2.0 mph 5.0 mph 51% 0.00 in
12:19 73.9 °F 55.2 °F 30.25 in SW 1.0 mph 4.0 mph 52% 0.00 in
12:24 73.8 °F 55.6 °F 30.25 in SSW 2.0 mph 3.0 mph 53% 0.00 in
12:29 74.0 °F 54.2 °F 30.25 in SSW 1.0 mph 4.0 mph 50% 0.00 in
12:34 74.4 °F 53.4 °F 30.24 in SW 2.0 mph 4.0 mph 48% 0.00 in
12:39 75.0 °F 55.1 °F 30.24 in WSW 1.0 mph 5.0 mph 50% 0.00 in
12:44 75.8 °F 54.7 °F 30.24 in SW 2.0 mph 5.0 mph 48% 0.00 in
12:49 75.9 °F 53.0 °F 30.23 in South 3.0 mph 6.0 mph 45% 0.00 in
12:54 75.9 °F 53.6 °F 30.23 in WSW 2.0 mph 7.0 mph 46% 0.00 in
12:59 76.0 °F 55.5 °F 30.23 in WSW 1.0 mph 4.0 mph 49% 0.00 in
13:04 76.3 °F 54.0 °F 30.23 in SW 2.0 mph 5.0 mph 46% 0.00 in
13:09 76.6 °F 53.1 °F 30.23 in SW 2.0 mph 5.0 mph 44% 0.00 in
13:14 76.1 °F 51.3 °F 30.23 in SSW 2.0 mph 6.0 mph 42% 0.00 in
13:19 76.5 °F 51.0 °F 30.22 in South 2.0 mph 6.0 mph 41% 0.00 in
13:24 76.7 °F 52.5 °F 30.22 in SW 2.0 mph 5.0 mph 43% 0.00 in
13:29 76.7 °F 51.9 °F 30.22 in SW 4.0 mph 5.0 mph 42% 0.00 in
13:34 77.0 °F 51.5 °F 30.22 in SSW 1.0 mph 6.0 mph 41% 0.00 in
13:39 77.1 °F 50.9 °F 30.22 in SSW 3.0 mph 6.0 mph 40% 0.00 in
13:44 77.0 °F 52.1 °F 30.21 in SW 3.0 mph 7.0 mph 42% 0.00 in
13:49 77.2 °F 52.3 °F 30.21 in SW 3.0 mph 7.0 mph 42% 0.00 in
13:54 77.0 °F 53.4 °F 30.21 in SW 2.0 mph 6.0 mph 44% 0.00 in
13:59 77.0 °F 54.0 °F 30.21 in South 1.0 mph 6.0 mph 45% 0.00 in
14:04 77.1 °F 52.2 °F 30.21 in SW 1.0 mph 5.0 mph 42% 0.00 in
14:09 77.0 °F 51.5 °F 30.20 in SW 1.0 mph 7.0 mph 41% 0.00 in
14:14 76.3 °F 52.2 °F 30.20 in SSW 3.0 mph 7.0 mph 43% 0.00 in
14:19 76.5 °F 53.6 °F 30.20 in SSW 2.0 mph 5.0 mph 45% 0.00 in
14:24 77.4 °F 54.4 °F 30.20 in SW 1.0 mph 6.0 mph 45% 0.00 in
14:29 77.6 °F 52.0 °F 30.19 in SSW 1.0 mph 4.0 mph 41% 0.00 in
14:34 77.5 °F 51.9 °F 30.19 in South 2.0 mph 4.0 mph 41% 0.00 in
14:39 78.0 °F 52.4 °F 30.19 in WSW 1.0 mph 4.0 mph 41% 0.00 in
14:44 78.7 °F 53.0 °F 30.18 in SW 2.0 mph 4.0 mph 41% 0.00 in
14:49 78.4 °F 52.7 °F 30.18 in SW 2.0 mph 5.0 mph 41% 0.00 in
14:54 78.2 °F 54.5 °F 30.18 in WSW 2.0 mph 5.0 mph 44% 0.00 in
14:59 78.5 °F 52.8 °F 30.18 in West 2.0 mph 4.0 mph 41% 0.00 in
15:04 78.6 °F 52.9 °F 30.17 in West 1.0 mph 4.0 mph 41% 0.00 in
15:09 79.2 °F 55.4 °F 30.17 in Calm   4.0 mph 44% 0.00 in
15:14 78.3 °F 53.3 °F 30.17 in South 3.0 mph 3.0 mph 42% 0.00 in
15:19 77.7 °F 52.1 °F 30.17 in South 2.0 mph 7.0 mph 41% 0.00 in
15:24 77.3 °F 53.1 °F 30.17 in South 2.0 mph 4.0 mph 43% 0.00 in
15:29 77.4 °F 51.9 °F 30.17 in SSE 1.0 mph 5.0 mph 41% 0.00 in
15:34 77.4 °F 51.9 °F 30.17 in SSE 1.0 mph 8.0 mph 41% 0.00 in
15:39 77.5 °F 52.6 °F 30.17 in South 1.0 mph 6.0 mph 42% 0.00 in
15:44 78.3 °F 54.0 °F 30.16 in SSW 2.0 mph 6.0 mph 43% 0.00 in
15:49 79.3 °F 51.5 °F 30.16 in SSE 2.0 mph 7.0 mph 38% 0.00 in
15:54 79.8 °F 52.6 °F 30.16 in SSW 3.0 mph 8.0 mph 39% 0.00 in
15:59 79.8 °F 51.9 °F 30.16 in SSW 3.0 mph 8.0 mph 38% 0.00 in
16:04 79.5 °F 51.7 °F 30.16 in SW 4.0 mph 10.0 mph 38% 0.00 in
16:09 79.2 °F 50.7 °F 30.16 in SSW 5.0 mph 10.0 mph 37% 0.00 in
16:14 79.2 °F 51.4 °F 30.16 in SSW 4.0 mph 10.0 mph 38% 0.00 in
16:19 78.9 °F 51.1 °F 30.16 in SSW 3.0 mph 9.0 mph 38% 0.00 in
16:24 78.5 °F 51.5 °F 30.16 in SW 8.0 mph 8.0 mph 39% 0.00 in
16:29 78.4 °F 52.7 °F 30.15 in SSW 4.0 mph 8.0 mph 41% 0.00 in
16:34 78.2 °F 51.9 °F 30.16 in SW 3.0 mph 8.0 mph 40% 0.00 in
16:39 77.8 °F 52.2 °F 30.15 in SSW 2.0 mph 7.0 mph 41% 0.00 in
16:44 77.5 °F 52.6 °F 30.15 in SW 1.0 mph 7.0 mph 42% 0.00 in
16:49 77.4 °F 53.1 °F 30.15 in SW 5.0 mph 6.0 mph 43% 0.00 in
16:54 77.3 °F 53.7 °F 30.15 in Calm   5.0 mph 44% 0.00 in
16:59 76.9 °F 52.7 °F 30.15 in South 2.0 mph 6.0 mph 43% 0.00 in
17:04 76.9 °F 53.9 °F 30.15 in SSW 1.0 mph 5.0 mph 45% 0.00 in
17:09 77.0 °F 54.0 °F 30.15 in SSW 1.0 mph 4.0 mph 45% 0.00 in
17:14 77.0 °F 53.4 °F 30.15 in SSW 1.0 mph 3.0 mph 44% 0.00 in
17:19 76.7 °F 53.8 °F 30.15 in Calm   4.0 mph 45% 0.00 in
17:24 76.3 °F 53.4 °F 30.14 in SSW 1.0 mph 2.0 mph 45% 0.00 in
17:29 76.0 °F 53.7 °F 30.14 in SSW 1.0 mph 1.0 mph 46% 0.00 in
17:34 75.7 °F 53.4 °F 30.14 in Calm   2.0 mph 46% 0.00 in
17:39 75.3 °F 53.7 °F 30.14 in Calm   2.0 mph 47% 0.00 in
17:44 74.4 °F 54.0 °F 30.14 in Calm     49% 0.00 in
17:49 73.2 °F 54.0 °F 30.14 in Calm     51% 0.00 in
17:54 72.4 °F 54.3 °F 30.14 in Calm     53% 0.00 in
17:59 71.7 °F 54.2 °F 30.14 in Calm     54% 0.00 in
18:04 71.6 °F 53.6 °F 30.14 in Calm     53% 0.00 in
18:09 71.7 °F 53.7 °F 30.14 in Calm     53% 0.00 in
18:14 71.7 °F 53.7 °F 30.14 in Calm     53% 0.00 in
18:19 71.7 °F 53.7 °F 30.14 in Calm     53% 0.00 in
18:24 71.5 °F 53.5 °F 30.13 in Calm     53% 0.00 in
18:29 71.3 °F 53.8 °F 30.13 in Calm     54% 0.00 in
18:34 70.4 °F 54.4 °F 30.14 in Calm     57% 0.00 in
18:44 69.9 °F 54.0 °F 30.14 in Calm     57% 0.00 in
18:49 69.7 °F 53.8 °F 30.13 in Calm     57% 0.00 in
18:54 69.5 °F 54.1 °F 30.14 in Calm     58% 0.00 in
18:59 69.3 °F 53.9 °F 30.14 in Calm     58% 0.00 in
19:04 69.1 °F 54.6 °F 30.14 in Calm     60% 0.00 in
19:09 68.8 °F 53.4 °F 30.14 in Calm     58% 0.00 in
19:14 69.5 °F 53.1 °F 30.14 in Calm     56% 0.00 in
19:19 69.7 °F 53.3 °F 30.14 in Calm     56% 0.00 in
19:24 69.5 °F 53.1 °F 30.14 in Calm   2.0 mph 56% 0.00 in
19:29 69.4 °F 53.0 °F 30.14 in Calm   2.0 mph 56% 0.00 in
19:34 69.2 °F 53.3 °F 30.15 in Calm   2.0 mph 57% 0.00 in
19:39 68.8 °F 52.9 °F 30.14 in Calm     57% 0.00 in
19:44 67.9 °F 53.0 °F 30.15 in Calm     59% 0.00 in
19:49 67.1 °F 53.2 °F 30.15 in Calm   2.0 mph 61% 0.00 in
19:54 66.6 °F 53.2 °F 30.15 in Calm     62% 0.00 in
20:04 66.1 °F 53.1 °F 30.15 in Calm   1.0 mph 63% 0.00 in
20:09 66.3 °F 52.9 °F 30.15 in SSW 1.0 mph 1.0 mph 62% 0.00 in
20:14 66.3 °F 52.9 °F 30.16 in Calm   1.0 mph 62% 0.00 in
20:19 66.3 °F 52.9 °F 30.16 in Calm     62% 0.00 in
20:24 66.1 °F 52.7 °F 30.16 in Calm     62% 0.00 in
20:29 65.6 °F 52.7 °F 30.16 in Calm   3.0 mph 63% 0.00 in
20:34 65.3 °F 52.8 °F 30.15 in Calm   3.0 mph 64% 0.00 in
20:39 64.9 °F 52.4 °F 30.16 in Calm   2.0 mph 64% 0.00 in
20:44 64.5 °F 52.5 °F 30.15 in Calm   2.0 mph 65% 0.00 in
20:49 64.3 °F 52.3 °F 30.15 in Calm   2.0 mph 65% 0.00 in
20:54 64.1 °F 52.1 °F 30.15 in Calm   2.0 mph 65% 0.00 in
20:59 64.2 °F 52.2 °F 30.15 in Calm   2.0 mph 65% 0.00 in
21:04 64.4 °F 52.0 °F 30.16 in Calm   5.0 mph 64% 0.00 in
21:09 64.6 °F 51.7 °F 30.16 in SSW 1.0 mph 5.0 mph 63% 0.00 in
21:14 64.8 °F 51.9 °F 30.15 in South 1.0 mph 5.0 mph 63% 0.00 in
21:19 65.0 °F 51.7 °F 30.15 in South 1.0 mph 4.0 mph 62% 0.00 in
21:24 65.2 °F 51.8 °F 30.15 in SSE 1.0 mph 4.0 mph 62% 0.00 in
21:29 65.4 °F 52.0 °F 30.15 in SSE 3.0 mph 5.0 mph 62% 0.00 in
21:34 65.6 °F 52.2 °F 30.15 in SSE 1.0 mph 5.0 mph 62% 0.00 in
21:39 65.8 °F 52.4 °F 30.15 in SSE 1.0 mph 5.0 mph 62% 0.00 in
21:44 65.9 °F 52.5 °F 30.15 in SSE 3.0 mph 4.0 mph 62% 0.00 in
21:49 65.9 °F 52.5 °F 30.15 in South 1.0 mph 6.0 mph 62% 0.00 in
21:54 65.9 °F 52.5 °F 30.15 in South 2.0 mph 4.0 mph 62% 0.00 in
21:59 65.8 °F 52.4 °F 30.15 in South 2.0 mph 4.0 mph 62% 0.00 in
22:09 65.8 °F 52.9 °F 30.15 in SSE 2.0 mph 5.0 mph 63% 0.00 in
22:14 65.9 °F 52.5 °F 30.15 in SSE 3.0 mph 7.0 mph 62% 0.00 in
22:19 65.8 °F 52.9 °F 30.15 in SSE 3.0 mph 7.0 mph 63% 0.00 in
22:24 65.6 °F 52.7 °F 30.15 in SSE 2.0 mph 6.0 mph 63% 0.00 in
22:29 65.6 °F 52.7 °F 30.15 in Calm   6.0 mph 63% 0.00 in
22:34 65.5 °F 53.0 °F 30.15 in SSE 2.0 mph 6.0 mph 64% 0.00 in
22:39 65.5 °F 53.0 °F 30.14 in SSE 2.0 mph 6.0 mph 64% 0.00 in
22:44 65.4 °F 52.9 °F 30.14 in SSE 1.0 mph 5.0 mph 64% 0.00 in
22:49 65.3 °F 52.8 °F 30.14 in Calm   5.0 mph 64% 0.00 in
22:54 65.2 °F 53.1 °F 30.14 in Calm   5.0 mph 65% 0.00 in
22:59 65.1 °F 53.0 °F 30.13 in South 1.0 mph 5.0 mph 65% 0.00 in
23:04 65.2 °F 53.1 °F 30.13 in SSE 2.0 mph 5.0 mph 65% 0.00 in
23:09 65.2 °F 53.1 °F 30.13 in SSE 2.0 mph 6.0 mph 65% 0.00 in
23:14 65.0 °F 53.4 °F 30.13 in South 1.0 mph 6.0 mph 66% 0.00 in
23:19 64.8 °F 53.2 °F 30.13 in SSE 1.0 mph 3.0 mph 66% 0.00 in
23:24 64.6 °F 53.0 °F 30.12 in SSE 1.0 mph 4.0 mph 66% 0.00 in
23:29 64.3 °F 53.1 °F 30.12 in South 1.0 mph 4.0 mph 67% 0.00 in
23:34 64.3 °F 53.1 °F 30.12 in Calm   4.0 mph 67% 0.00 in
23:39 64.0 °F 53.2 °F 30.12 in Calm   4.0 mph 68% 0.00 in
23:44 63.4 °F 53.0 °F 30.12 in Calm     69% 0.00 in
23:49 63.2 °F 52.9 °F 30.12 in Calm     69% 0.00 in
23:54 63.0 °F 52.7 °F 30.12 in Calm     69% 0.00 in
23:59 62.8 °F 52.9 °F 30.11 in Calm     70% 0.00 in
Buffalo, New York, USA
Compliments of Weather Underground - 2.5 mb